createdAt,value
2024-01-22T00:01:00.655Z,-0.22
2024-01-22T00:03:49.305Z,-0.21
2024-01-22T00:06:39.293Z,-0.20
2024-01-22T00:09:28.250Z,-0.40
2024-01-22T00:12:18.216Z,-0.51
2024-01-22T00:15:08.743Z,-0.49
2024-01-22T00:17:57.378Z,-0.80
2024-01-22T00:20:47.385Z,-0.65
2024-01-22T00:23:36.057Z,-0.69
2024-01-22T00:26:24.690Z,-0.74
2024-01-22T00:29:14.757Z,-0.60
2024-01-22T00:32:04.559Z,-0.54
2024-01-22T00:34:55.983Z,-0.50
2024-01-22T00:37:44.628Z,-0.43
2024-01-22T00:40:34.202Z,-0.56
2024-01-22T00:43:22.756Z,-0.67
2024-01-22T00:46:13.165Z,-0.72
2024-01-22T00:49:01.868Z,-0.78
2024-01-22T00:51:50.605Z,-0.77
2024-01-22T00:54:39.216Z,-0.81
2024-01-22T00:57:27.925Z,-0.86
2024-01-22T01:00:17.510Z,-0.93
2024-01-22T01:03:07.809Z,-1.19
2024-01-22T01:05:56.554Z,-1.00
2024-01-22T01:11:33.989Z,-0.92
2024-01-22T01:14:22.673Z,-1.01
2024-01-22T01:17:11.348Z,-1.03
2024-01-22T01:20:01.482Z,-1.00
2024-01-22T01:22:50.063Z,-1.08
2024-01-22T01:25:38.572Z,-0.95
2024-01-22T01:28:27.682Z,-0.97
2024-01-22T01:31:16.593Z,-0.90
2024-01-22T01:34:05.928Z,-0.93
2024-01-22T01:36:56.015Z,-0.85
2024-01-22T01:39:44.537Z,-1.05
2024-01-22T01:42:33.234Z,-1.06
2024-01-22T01:45:21.877Z,-1.09
2024-01-22T01:48:10.648Z,-1.04
2024-01-22T01:50:59.532Z,-0.96
2024-01-22T01:53:49.865Z,-0.85
2024-01-22T01:56:38.627Z,-1.01
2024-01-22T01:59:27.682Z,-1.12
2024-01-22T02:02:16.318Z,-1.07
2024-01-22T02:05:05.267Z,-1.09
2024-01-22T02:07:53.875Z,-1.04
2024-01-22T02:10:48.133Z,-0.51
2024-01-22T02:13:36.678Z,-0.76
2024-01-22T02:16:25.201Z,-0.51
2024-01-22T02:19:14.072Z,-0.64
2024-01-22T02:22:02.822Z,-0.79
2024-01-22T02:24:53.207Z,-0.91
2024-01-22T02:27:41.907Z,-0.94
2024-01-22T02:30:30.574Z,-0.87
2024-01-22T02:33:19.320Z,-0.89
2024-01-22T02:36:08.219Z,-1.47
2024-01-22T02:38:56.842Z,-0.88
2024-01-22T02:41:46.774Z,-0.87
2024-01-22T02:44:37.022Z,-0.85
2024-01-22T02:47:25.862Z,-0.66
2024-01-22T02:50:15.002Z,-0.52
2024-01-22T02:53:03.900Z,-0.46
2024-01-22T02:55:52.549Z,-0.44
2024-01-22T02:58:42.523Z,-0.34
2024-01-22T03:01:31.069Z,-0.31
2024-01-22T03:04:19.792Z,-0.26
2024-01-22T03:07:09.394Z,-0.21
2024-01-22T03:09:58.024Z,-0.13
2024-01-22T03:12:47.100Z,-0.04
2024-01-22T03:15:37.012Z,0.06
2024-01-22T03:18:25.718Z,0.13
2024-01-22T03:21:14.634Z,0.14
2024-01-22T03:24:03.270Z,0.14
2024-01-22T03:26:52.344Z,0.25
2024-01-22T03:29:41.663Z,0.19
2024-01-22T03:32:31.820Z,0.23
2024-01-22T03:35:21.773Z,0.35
2024-01-22T03:38:10.314Z,0.25
2024-01-22T03:40:58.879Z,0.41
2024-01-22T03:43:47.751Z,0.45
2024-01-22T03:46:37.211Z,0.59
2024-01-22T03:49:27.363Z,0.61
2024-01-22T03:52:15.968Z,0.34
2024-01-22T03:55:04.964Z,0.62
2024-01-22T03:57:53.590Z,0.65
2024-01-22T04:00:42.166Z,0.72
2024-01-22T04:03:30.870Z,0.72
2024-01-22T04:06:20.990Z,0.85
2024-01-22T04:09:11.851Z,0.90
2024-01-22T04:12:00.563Z,0.91
2024-01-22T04:14:49.154Z,1.01
2024-01-22T04:17:37.763Z,0.90
2024-01-22T04:20:26.445Z,0.96
2024-01-22T04:23:16.438Z,0.94
2024-01-22T04:26:05.313Z,0.96
2024-01-22T04:28:53.863Z,0.99
2024-01-22T04:31:42.540Z,1.04
2024-01-22T04:34:31.295Z,1.00
2024-01-22T04:37:22.147Z,1.09
2024-01-22T04:40:13.536Z,0.85
2024-01-22T04:43:02.306Z,1.08
2024-01-22T04:45:50.950Z,0.54
2024-01-22T04:48:39.658Z,1.05
2024-01-22T04:51:28.525Z,0.95
2024-01-22T04:54:17.294Z,0.92
2024-01-22T04:57:07.561Z,0.90
2024-01-22T04:59:56.152Z,0.80
2024-01-22T05:02:44.784Z,0.91
2024-01-22T05:05:33.949Z,0.92
2024-01-22T05:08:22.585Z,0.94
2024-01-22T05:11:11.211Z,1.22
2024-01-22T05:14:01.216Z,1.17
2024-01-22T05:16:49.765Z,1.25
2024-01-22T05:19:38.508Z,1.37
2024-01-22T05:22:27.201Z,1.21
2024-01-22T05:25:15.808Z,1.33
2024-01-22T05:28:04.508Z,1.44
2024-01-22T05:30:54.408Z,1.50
2024-01-22T05:33:43.672Z,1.45
2024-01-22T05:36:32.391Z,1.39
2024-01-22T05:39:21.302Z,1.45
2024-01-22T05:42:09.923Z,1.41
2024-01-22T05:44:58.626Z,1.46
2024-01-22T05:47:48.901Z,1.42
2024-01-22T05:50:37.771Z,1.48
2024-01-22T05:53:26.409Z,1.48
2024-01-22T05:56:22.456Z,1.44
2024-01-22T05:59:11.022Z,1.48
2024-01-22T06:01:59.629Z,1.55
2024-01-22T06:04:51.617Z,1.65
2024-01-22T06:07:40.520Z,1.39
2024-01-22T06:10:30.922Z,1.70
2024-01-22T06:13:19.633Z,1.60
2024-01-22T06:16:10.350Z,1.66
2024-01-22T06:19:00.060Z,1.57
2024-01-22T06:21:50.151Z,1.50
2024-01-22T06:24:39.263Z,2.04
2024-01-22T06:27:27.984Z,3.69
2024-01-22T06:30:17.615Z,5.38
2024-01-22T06:33:06.887Z,6.51
2024-01-22T06:35:55.825Z,7.27
2024-01-22T06:38:45.758Z,7.71
2024-01-22T06:41:34.644Z,8.00
2024-01-22T06:44:23.183Z,8.06
2024-01-22T06:47:11.714Z,8.55
2024-01-22T06:50:00.372Z,8.72
2024-01-22T06:52:49.033Z,8.71
2024-01-22T06:55:39.135Z,8.77
2024-01-22T06:58:27.842Z,9.03
2024-01-22T07:01:16.454Z,9.03
2024-01-22T07:04:05.301Z,9.17
2024-01-22T07:06:54.330Z,9.69
2024-01-22T07:09:43.808Z,9.61
2024-01-22T07:12:33.958Z,9.75
2024-01-22T07:15:23.656Z,9.77
2024-01-22T07:18:14.369Z,9.72
2024-01-22T07:21:03.980Z,9.72
2024-01-22T07:23:52.641Z,9.79
2024-01-22T07:26:41.340Z,9.85
2024-01-22T07:29:31.838Z,9.93
2024-01-22T07:32:20.422Z,10.40
2024-01-22T07:35:14.433Z,10.32
2024-01-22T07:38:05.918Z,10.43
2024-01-22T07:40:56.432Z,10.46
2024-01-22T07:43:46.627Z,10.70
2024-01-22T07:46:36.601Z,10.83
2024-01-22T07:49:25.312Z,10.80
2024-01-22T07:52:13.974Z,10.84
2024-01-22T07:55:03.157Z,10.74
2024-01-22T07:57:51.949Z,10.72
2024-01-22T08:00:40.644Z,10.54
2024-01-22T08:03:30.908Z,10.32
2024-01-22T08:06:19.542Z,10.18
2024-01-22T08:09:08.830Z,10.33
2024-01-22T08:11:57.536Z,10.33
2024-01-22T08:14:46.226Z,10.34
2024-01-22T08:17:37.152Z,10.43
2024-01-22T08:20:31.530Z,10.65
2024-01-22T08:23:21.489Z,10.73
2024-01-22T08:26:10.124Z,10.91
2024-01-22T08:28:58.897Z,11.03
2024-01-22T08:31:47.505Z,11.16
2024-01-22T08:34:39.440Z,11.27
2024-01-22T08:37:29.556Z,11.33
2024-01-22T08:40:22.411Z,10.98
2024-01-22T08:43:11.663Z,11.22
2024-01-22T08:46:01.040Z,11.31
2024-01-22T08:48:49.824Z,11.23
2024-01-22T08:51:38.526Z,11.13
2024-01-22T08:54:29.952Z,11.14
2024-01-22T08:57:20.959Z,11.03
2024-01-22T09:00:12.828Z,10.90
2024-01-22T09:03:01.681Z,10.70
2024-01-22T09:05:50.516Z,10.59
2024-01-22T09:08:39.350Z,10.53
2024-01-22T09:11:29.333Z,10.45
2024-01-22T09:14:18.590Z,10.40
2024-01-22T09:17:07.172Z,10.57
2024-01-22T09:19:55.827Z,10.61
2024-01-22T09:22:44.503Z,10.62
2024-01-22T09:25:33.092Z,10.64
2024-01-22T09:28:23.861Z,10.58
2024-01-22T09:31:14.355Z,10.58
2024-01-22T09:34:03.274Z,10.64
2024-01-22T09:36:51.946Z,10.58
2024-01-22T09:39:40.780Z,10.58
2024-01-22T09:42:29.531Z,10.71
2024-01-22T09:45:19.648Z,10.79
2024-01-22T09:48:10.556Z,10.84
2024-01-22T09:50:59.531Z,10.72
2024-01-22T09:53:49.824Z,10.87
2024-01-22T09:56:38.716Z,10.88
2024-01-22T09:59:29.320Z,11.01
2024-01-22T10:02:19.872Z,11.09
2024-01-22T10:05:09.654Z,11.07
2024-01-22T10:07:58.333Z,11.18
2024-01-22T10:10:47.155Z,11.20
2024-01-22T10:13:49.812Z,11.09
2024-01-22T10:16:40.423Z,11.12
2024-01-22T10:19:30.498Z,11.23
2024-01-22T10:22:22.210Z,11.19
2024-01-22T10:25:10.900Z,11.20
2024-01-22T10:28:13.123Z,11.16
2024-01-22T10:31:06.792Z,11.14
2024-01-22T10:34:06.645Z,11.21
2024-01-22T10:37:08.392Z,11.37
2024-01-22T10:40:02.288Z,11.34
2024-01-22T10:42:50.891Z,11.42
2024-01-22T10:45:40.483Z,11.45
2024-01-22T10:48:38.535Z,11.49
2024-01-22T10:51:35.221Z,11.47
2024-01-22T10:54:27.119Z,11.41
2024-01-22T10:57:18.510Z,11.34
2024-01-22T11:00:09.402Z,11.24
2024-01-22T11:02:59.807Z,10.30
2024-01-22T11:05:49.886Z,11.22
2024-01-22T11:08:39.234Z,11.27
2024-01-22T11:11:30.497Z,11.30
2024-01-22T11:14:19.270Z,11.29
2024-01-22T11:17:10.088Z,11.28
2024-01-22T11:20:16.648Z,11.27
2024-01-22T11:23:06.466Z,11.21
2024-01-22T11:26:10.834Z,10.82
2024-01-22T11:29:10.786Z,11.23
2024-01-22T11:31:59.425Z,11.22
2024-01-22T11:34:49.078Z,11.23
2024-01-22T11:37:39.392Z,11.24
2024-01-22T11:40:49.745Z,11.21
2024-01-22T11:43:38.374Z,11.29
2024-01-22T11:46:28.448Z,11.26
2024-01-22T11:49:17.214Z,11.38
2024-01-22T11:52:11.887Z,11.39
2024-01-22T11:55:02.414Z,11.20
2024-01-22T11:57:51.535Z,11.44
2024-01-22T12:00:40.471Z,11.54
2024-01-22T12:03:31.850Z,11.49
2024-01-22T12:06:22.163Z,11.51
2024-01-22T12:09:10.736Z,11.54
2024-01-22T12:12:04.196Z,11.56
2024-01-22T12:14:56.690Z,11.48
2024-01-22T12:17:46.113Z,11.55
2024-01-22T12:20:36.278Z,11.52
2024-01-22T12:23:32.007Z,11.45
2024-01-22T12:26:24.096Z,11.37
2024-01-22T12:29:21.095Z,11.52
2024-01-22T12:32:12.215Z,11.52
2024-01-22T12:35:02.047Z,11.49
2024-01-22T12:37:52.258Z,11.46
2024-01-22T12:40:42.878Z,11.48
2024-01-22T12:43:32.881Z,11.56
2024-01-22T12:46:21.854Z,11.53
2024-01-22T12:49:11.652Z,11.61
2024-01-22T12:52:00.475Z,11.60
2024-01-22T12:54:50.608Z,11.60
2024-01-22T12:57:39.728Z,11.71
2024-01-22T13:00:30.210Z,11.51
2024-01-22T13:03:19.145Z,11.72
2024-01-22T13:06:08.316Z,11.79
2024-01-22T13:08:57.074Z,11.74
2024-01-22T13:11:48.154Z,11.71
2024-01-22T13:14:37.464Z,11.53
2024-01-22T13:17:26.447Z,11.82
2024-01-22T13:20:16.174Z,11.88
2024-01-22T13:23:05.299Z,11.88
2024-01-22T13:25:53.834Z,11.97
2024-01-22T13:28:44.330Z,11.97
2024-01-22T13:31:33.383Z,11.95
2024-01-22T13:34:28.051Z,11.91
2024-01-22T13:37:17.006Z,12.03
2024-01-22T13:40:06.848Z,12.00
2024-01-22T13:42:55.544Z,12.07
2024-01-22T13:45:45.419Z,12.04
2024-01-22T13:48:34.263Z,12.10
2024-01-22T13:51:23.044Z,12.08
2024-01-22T13:54:11.747Z,12.02
2024-01-22T13:57:00.476Z,12.13
2024-01-22T13:59:49.868Z,12.05
2024-01-22T14:02:40.235Z,11.92
2024-01-22T14:05:29.157Z,11.95
2024-01-22T14:08:18.112Z,11.82
2024-01-22T14:11:07.351Z,12.03
2024-01-22T14:13:59.959Z,11.99
2024-01-22T14:16:48.550Z,11.90
2024-01-22T14:19:38.549Z,11.91
2024-01-22T14:22:30.073Z,11.85
2024-01-22T14:25:20.378Z,11.90
2024-01-22T14:28:11.247Z,11.85
2024-01-22T14:31:02.248Z,11.84
2024-01-22T14:33:52.841Z,11.79
2024-01-22T14:36:43.070Z,11.78
2024-01-22T14:39:31.879Z,11.60
2024-01-22T14:42:21.141Z,11.81
2024-01-22T14:45:10.838Z,11.72
2024-01-22T14:47:59.702Z,11.67
2024-01-22T14:50:48.950Z,11.68
2024-01-22T14:53:39.513Z,11.65
2024-01-22T14:56:28.389Z,11.56
2024-01-22T14:59:17.251Z,11.31
2024-01-22T15:02:05.858Z,11.38
2024-01-22T15:04:54.487Z,11.28
2024-01-22T15:07:43.101Z,11.14
2024-01-22T15:10:33.783Z,11.21
2024-01-22T15:13:22.439Z,11.09
2024-01-22T15:16:11.634Z,10.99
2024-01-22T15:19:00.636Z,10.87
2024-01-22T15:21:49.551Z,10.90
2024-01-22T15:24:38.469Z,10.73
2024-01-22T15:27:30.461Z,10.68
2024-01-22T15:30:19.634Z,10.61
2024-01-22T15:33:08.546Z,10.56
2024-01-22T15:35:57.428Z,10.41
2024-01-22T15:38:47.758Z,10.38
2024-01-22T15:41:37.618Z,10.36
2024-01-22T15:44:27.853Z,10.29
2024-01-22T15:47:16.546Z,10.22
2024-01-22T15:50:06.270Z,10.19
2024-01-22T15:52:56.827Z,10.12
2024-01-22T15:55:45.693Z,10.03
2024-01-22T15:58:34.408Z,10.02
2024-01-22T16:01:26.587Z,9.98
2024-01-22T16:04:15.832Z,9.93
2024-01-22T16:07:11.102Z,9.85
2024-01-22T16:10:02.321Z,9.89
2024-01-22T16:12:50.977Z,9.13
2024-01-22T16:15:40.400Z,9.74
2024-01-22T16:18:30.947Z,9.66
2024-01-22T16:21:20.070Z,9.57
2024-01-22T16:24:09.661Z,9.52
2024-01-22T16:26:59.672Z,9.47
2024-01-22T16:29:51.783Z,9.36
2024-01-22T16:32:41.345Z,9.21
2024-01-22T16:35:31.454Z,9.16
2024-01-22T16:38:22.983Z,8.94
2024-01-22T16:41:12.773Z,9.02
2024-01-22T16:44:01.428Z,9.00
2024-01-22T16:46:50.066Z,8.88
2024-01-22T16:49:38.772Z,8.82
2024-01-22T16:52:28.885Z,8.65
2024-01-22T16:55:17.517Z,8.62
2024-01-22T16:58:06.381Z,8.46
2024-01-22T17:00:55.116Z,8.42
2024-01-22T17:03:43.988Z,8.32
2024-01-22T17:06:33.090Z,8.26
2024-01-22T17:09:23.049Z,8.18
2024-01-22T17:12:12.289Z,8.08
2024-01-22T17:15:01.195Z,8.04
2024-01-22T17:17:52.185Z,8.09
2024-01-22T17:20:41.791Z,8.08
2024-01-22T17:23:33.348Z,8.06
2024-01-22T17:26:23.475Z,7.97
2024-01-22T17:29:12.262Z,7.98
2024-01-22T17:32:00.912Z,7.96
2024-01-22T17:34:50.111Z,7.89
2024-01-22T17:37:38.893Z,7.88
2024-01-22T17:40:28.023Z,7.82
2024-01-22T17:43:18.049Z,7.80
2024-01-22T17:46:07.245Z,7.76
2024-01-22T17:48:59.241Z,7.75
2024-01-22T17:51:48.355Z,7.75
2024-01-22T17:54:37.489Z,7.72
2024-01-22T17:57:26.119Z,7.75
2024-01-22T18:00:17.672Z,7.73
2024-01-22T18:03:06.339Z,7.67
2024-01-22T18:05:55.070Z,7.66
2024-01-22T18:08:44.695Z,7.61
2024-01-22T18:11:33.286Z,7.58
2024-01-22T18:14:21.991Z,7.60
2024-01-22T18:17:11.947Z,7.58
2024-01-22T18:20:00.532Z,7.60
2024-01-22T18:22:49.114Z,7.58
2024-01-22T18:25:37.660Z,7.57
2024-01-22T18:28:26.288Z,7.51
2024-01-22T18:31:14.941Z,7.57
2024-01-22T18:34:05.125Z,7.55
2024-01-22T18:36:53.772Z,7.55
2024-01-22T18:39:42.946Z,7.45
2024-01-22T18:42:31.668Z,7.55
2024-01-22T18:45:22.648Z,7.63
2024-01-22T18:48:11.476Z,7.62
2024-01-22T18:51:01.917Z,7.62
2024-01-22T18:53:50.597Z,7.67
2024-01-22T18:56:39.183Z,7.60
2024-01-22T18:59:28.069Z,7.60
2024-01-22T19:02:17.247Z,7.66
2024-01-22T19:05:06.228Z,7.63
2024-01-22T19:07:56.187Z,7.57
2024-01-22T19:10:44.847Z,7.03
2024-01-22T19:13:33.509Z,7.66
2024-01-22T19:16:23.552Z,7.73
2024-01-22T19:19:14.437Z,7.75
2024-01-22T19:22:03.491Z,7.70
2024-01-22T19:24:53.421Z,7.71
2024-01-22T19:27:42.917Z,7.48
2024-01-22T19:30:31.714Z,7.70
2024-01-22T19:33:20.553Z,7.74
2024-01-22T19:36:09.485Z,7.78
2024-01-22T19:38:58.652Z,7.76
2024-01-22T19:41:48.981Z,7.77
2024-01-22T19:44:38.191Z,7.74
2024-01-22T19:47:29.383Z,7.83
2024-01-22T19:50:18.445Z,7.82
2024-01-22T19:53:07.091Z,7.76
2024-01-22T19:55:55.695Z,7.80
2024-01-22T19:58:47.005Z,7.79
2024-01-22T20:01:35.721Z,7.72
2024-01-22T20:04:24.438Z,7.72
2024-01-22T20:07:13.029Z,7.65
2024-01-22T20:10:01.718Z,7.65
2024-01-22T20:12:50.640Z,7.66
2024-01-22T20:15:40.735Z,7.60
2024-01-22T20:18:29.644Z,7.65
2024-01-22T20:21:18.587Z,7.64
2024-01-22T20:24:08.462Z,7.60
2024-01-22T20:26:57.121Z,7.60
2024-01-22T20:29:45.715Z,7.58
2024-01-22T20:32:35.885Z,7.15
2024-01-22T20:35:24.870Z,7.59
2024-01-22T20:38:13.693Z,7.66
2024-01-22T20:41:02.318Z,7.80
2024-01-22T20:43:50.941Z,7.75
2024-01-22T20:46:39.669Z,7.66
2024-01-22T20:49:29.768Z,7.68
2024-01-22T20:52:19.409Z,7.70
2024-01-22T20:55:08.707Z,7.69
2024-01-22T20:57:57.288Z,7.63
2024-01-22T21:00:46.096Z,7.52
2024-01-22T21:03:35.167Z,7.61
2024-01-22T21:06:25.541Z,7.61
2024-01-22T21:09:14.614Z,7.61
2024-01-22T21:12:03.776Z,7.69
2024-01-22T21:14:52.640Z,7.82
2024-01-22T21:17:42.830Z,7.73
2024-01-22T21:20:31.644Z,7.69
2024-01-22T21:23:21.955Z,7.59
2024-01-22T21:26:15.818Z,7.53
2024-01-22T21:29:06.180Z,7.51
2024-01-22T21:31:57.995Z,7.55
2024-01-22T21:34:46.757Z,7.51
2024-01-22T21:37:35.738Z,7.43
2024-01-22T21:40:25.888Z,7.47
2024-01-22T21:43:14.792Z,7.39
2024-01-22T21:46:03.544Z,7.44
2024-01-22T21:48:52.240Z,7.48
2024-01-22T21:51:40.959Z,7.61
2024-01-22T21:54:29.970Z,7.73
2024-01-22T21:57:20.179Z,7.64
2024-01-22T22:00:12.271Z,7.84
2024-01-22T22:03:01.066Z,8.05
2024-01-22T22:05:49.814Z,8.13
2024-01-22T22:08:38.808Z,8.05
2024-01-22T22:11:27.502Z,8.13
2024-01-22T22:14:17.982Z,8.12
2024-01-22T22:17:07.848Z,8.12
2024-01-22T22:19:56.720Z,8.15
2024-01-22T22:22:47.234Z,7.76
2024-01-22T22:25:36.219Z,8.14
2024-01-22T22:28:25.016Z,8.06
2024-01-22T22:31:14.927Z,8.03
2024-01-22T22:34:05.003Z,8.09
2024-01-22T22:36:54.203Z,8.08
2024-01-22T22:39:43.298Z,8.10
2024-01-22T22:42:32.048Z,8.09
2024-01-22T22:45:20.666Z,8.13
2024-01-22T22:48:11.194Z,8.16
2024-01-22T22:50:59.894Z,8.20
2024-01-22T22:53:48.467Z,8.17
2024-01-22T22:56:37.202Z,8.23
2024-01-22T22:59:25.701Z,8.24
2024-01-22T23:02:14.692Z,8.21
2024-01-22T23:05:04.784Z,8.17
2024-01-22T23:07:53.366Z,8.13
2024-01-22T23:10:41.960Z,8.13
2024-01-22T23:13:30.549Z,8.04
2024-01-22T23:16:19.741Z,8.04
2024-01-22T23:19:08.463Z,8.04
2024-01-22T23:21:58.420Z,8.07
2024-01-22T23:24:47.371Z,8.13
2024-01-22T23:27:36.176Z,8.12
2024-01-22T23:30:24.986Z,7.52
2024-01-22T23:33:13.800Z,8.07
2024-01-22T23:36:02.509Z,8.12
2024-01-22T23:38:54.399Z,8.14
2024-01-22T23:41:43.117Z,8.15
2024-01-22T23:44:31.770Z,8.12
2024-01-22T23:47:20.495Z,8.13
2024-01-22T23:50:10.537Z,8.07
2024-01-22T23:52:59.758Z,8.08
2024-01-22T23:55:49.668Z,8.06
2024-01-22T23:58:38.271Z,7.49
